sensor_id;sensor_type;location;lat;lon;timestamp;P1;durP1;ratioP1;P2;durP2;ratioP2
23804;SDS011;12083;52.098;7.582;2022-08-20T00:00:11;22.17;;;15.53;;
23804;SDS011;12083;52.098;7.582;2022-08-20T00:02:40;25.77;;;15.27;;
23804;SDS011;12083;52.098;7.582;2022-08-20T00:05:11;22.37;;;15.97;;
23804;SDS011;12083;52.098;7.582;2022-08-20T00:07:38;25.83;;;16.67;;
23804;SDS011;12083;52.098;7.582;2022-08-20T00:10:05;26.97;;;16.90;;
23804;SDS011;12083;52.098;7.582;2022-08-20T00:12:32;22.83;;;16.00;;
23804;SDS011;12083;52.098;7.582;2022-08-20T00:14:59;25.60;;;14.97;;
23804;SDS011;12083;52.098;7.582;2022-08-20T00:17:25;20.43;;;15.30;;
23804;SDS011;12083;52.098;7.582;2022-08-20T00:19:52;24.60;;;15.73;;
23804;SDS011;12083;52.098;7.582;2022-08-20T00:22:18;31.40;;;15.40;;
23804;SDS011;12083;52.098;7.582;2022-08-20T00:24:43;22.20;;;15.70;;
23804;SDS011;12083;52.098;7.582;2022-08-20T00:27:09;28.87;;;17.73;;
23804;SDS011;12083;52.098;7.582;2022-08-20T00:29:35;28.90;;;17.60;;
23804;SDS011;12083;52.098;7.582;2022-08-20T00:32:00;28.77;;;18.70;;
23804;SDS011;12083;52.098;7.582;2022-08-20T00:34:26;30.47;;;19.07;;
23804;SDS011;12083;52.098;7.582;2022-08-20T00:36:52;32.47;;;17.00;;
23804;SDS011;12083;52.098;7.582;2022-08-20T00:39:17;18.80;;;12.63;;
23804;SDS011;12083;52.098;7.582;2022-08-20T00:41:43;24.70;;;15.00;;
23804;SDS011;12083;52.098;7.582;2022-08-20T00:44:16;17.00;;;11.80;;
23804;SDS011;12083;52.098;7.582;2022-08-20T00:46:46;13.37;;;11.20;;
23804;SDS011;12083;52.098;7.582;2022-08-20T00:49:17;14.73;;;9.90;;
23804;SDS011;12083;52.098;7.582;2022-08-20T00:51:47;12.47;;;8.57;;
23804;SDS011;12083;52.098;7.582;2022-08-20T00:56:50;25.07;;;11.60;;
23804;SDS011;12083;52.098;7.582;2022-08-20T00:59:22;15.93;;;10.40;;
23804;SDS011;12083;52.098;7.582;2022-08-20T01:01:51;17.17;;;11.90;;
23804;SDS011;12083;52.098;7.582;2022-08-20T01:04:17;15.60;;;10.93;;
23804;SDS011;12083;52.098;7.582;2022-08-20T01:06:43;18.03;;;11.40;;
23804;SDS011;12083;52.098;7.582;2022-08-20T01:09:09;16.27;;;10.90;;
23804;SDS011;12083;52.098;7.582;2022-08-20T01:11:35;17.53;;;10.07;;
23804;SDS011;12083;52.098;7.582;2022-08-20T01:14:02;16.37;;;12.10;;
23804;SDS011;12083;52.098;7.582;2022-08-20T01:16:54;20.90;;;10.30;;
23804;SDS011;12083;52.098;7.582;2022-08-20T01:19:30;19.07;;;11.47;;
23804;SDS011;12083;52.098;7.582;2022-08-20T01:22:00;15.77;;;10.87;;
23804;SDS011;12083;52.098;7.582;2022-08-20T01:24:48;14.70;;;10.93;;
23804;SDS011;12083;52.098;7.582;2022-08-20T01:27:19;17.90;;;10.87;;
23804;SDS011;12083;52.098;7.582;2022-08-20T01:29:46;15.83;;;11.57;;
23804;SDS011;12083;52.098;7.582;2022-08-20T01:32:13;14.10;;;10.53;;
23804;SDS011;12083;52.098;7.582;2022-08-20T01:34:38;16.13;;;9.77;;
23804;SDS011;12083;52.098;7.582;2022-08-20T01:37:04;13.53;;;10.30;;
23804;SDS011;12083;52.098;7.582;2022-08-20T01:39:31;16.70;;;10.90;;
23804;SDS011;12083;52.098;7.582;2022-08-20T01:44:32;16.20;;;11.97;;
23804;SDS011;12083;52.098;7.582;2022-08-20T01:47:06;13.53;;;12.10;;
23804;SDS011;12083;52.098;7.582;2022-08-20T01:49:54;17.63;;;12.83;;
23804;SDS011;12083;52.098;7.582;2022-08-20T01:55:25;24.57;;;14.00;;
23804;SDS011;12083;52.098;7.582;2022-08-20T01:57:53;20.80;;;15.07;;
23804;SDS011;12083;52.098;7.582;2022-08-20T02:00:19;20.70;;;15.17;;
23804;SDS011;12083;52.098;7.582;2022-08-20T02:02:46;23.17;;;14.30;;
23804;SDS011;12083;52.098;7.582;2022-08-20T02:05:11;18.73;;;13.63;;
23804;SDS011;12083;52.098;7.582;2022-08-20T02:07:37;18.73;;;13.67;;
23804;SDS011;12083;52.098;7.582;2022-08-20T02:10:04;17.17;;;13.50;;
23804;SDS011;12083;52.098;7.582;2022-08-20T02:12:32;19.47;;;14.77;;
23804;SDS011;12083;52.098;7.582;2022-08-20T02:14:59;16.80;;;12.03;;
23804;SDS011;12083;52.098;7.582;2022-08-20T02:17:25;18.13;;;13.20;;
23804;SDS011;12083;52.098;7.582;2022-08-20T02:19:57;16.80;;;12.33;;
23804;SDS011;12083;52.098;7.582;2022-08-20T02:22:42;16.27;;;12.33;;
23804;SDS011;12083;52.098;7.582;2022-08-20T02:25:12;13.70;;;11.23;;
23804;SDS011;12083;52.098;7.582;2022-08-20T02:27:39;18.03;;;12.27;;
23804;SDS011;12083;52.098;7.582;2022-08-20T02:30:08;15.53;;;12.30;;
23804;SDS011;12083;52.098;7.582;2022-08-20T02:32:37;16.63;;;11.67;;
23804;SDS011;12083;52.098;7.582;2022-08-20T02:35:04;14.77;;;11.40;;
23804;SDS011;12083;52.098;7.582;2022-08-20T02:37:33;12.33;;;10.50;;
23804;SDS011;12083;52.098;7.582;2022-08-20T02:40:00;13.70;;;10.90;;
23804;SDS011;12083;52.098;7.582;2022-08-20T02:42:27;13.63;;;10.87;;
23804;SDS011;12083;52.098;7.582;2022-08-20T02:44:53;14.50;;;11.30;;
23804;SDS011;12083;52.098;7.582;2022-08-20T02:47:19;13.43;;;11.00;;
23804;SDS011;12083;52.098;7.582;2022-08-20T02:49:44;11.60;;;9.57;;
23804;SDS011;12083;52.098;7.582;2022-08-20T02:52:10;16.90;;;11.40;;
23804;SDS011;12083;52.098;7.582;2022-08-20T02:54:35;13.03;;;10.80;;
23804;SDS011;12083;52.098;7.582;2022-08-20T02:57:01;12.37;;;10.20;;
23804;SDS011;12083;52.098;7.582;2022-08-20T02:59:28;14.33;;;11.40;;
23804;SDS011;12083;52.098;7.582;2022-08-20T03:01:53;14.23;;;10.57;;
23804;SDS011;12083;52.098;7.582;2022-08-20T03:04:19;12.10;;;10.20;;
23804;SDS011;12083;52.098;7.582;2022-08-20T03:06:44;11.57;;;9.33;;
23804;SDS011;12083;52.098;7.582;2022-08-20T03:09:10;12.27;;;10.87;;
23804;SDS011;12083;52.098;7.582;2022-08-20T03:11:36;16.23;;;11.40;;
23804;SDS011;12083;52.098;7.582;2022-08-20T03:14:04;14.93;;;10.57;;
23804;SDS011;12083;52.098;7.582;2022-08-20T03:16:30;17.20;;;13.00;;
23804;SDS011;12083;52.098;7.582;2022-08-20T03:18:56;11.50;;;9.50;;
23804;SDS011;12083;52.098;7.582;2022-08-20T03:21:22;13.53;;;10.20;;
23804;SDS011;12083;52.098;7.582;2022-08-20T03:23:48;14.63;;;11.20;;
23804;SDS011;12083;52.098;7.582;2022-08-20T03:26:13;12.90;;;10.83;;
23804;SDS011;12083;52.098;7.582;2022-08-20T03:28:40;13.10;;;10.03;;
23804;SDS011;12083;52.098;7.582;2022-08-20T03:31:07;13.70;;;10.10;;
23804;SDS011;12083;52.098;7.582;2022-08-20T03:33:32;14.83;;;10.50;;
23804;SDS011;12083;52.098;7.582;2022-08-20T03:35:58;21.33;;;11.63;;
23804;SDS011;12083;52.098;7.582;2022-08-20T03:38:24;10.90;;;9.73;;
23804;SDS011;12083;52.098;7.582;2022-08-20T03:40:50;11.17;;;9.93;;
23804;SDS011;12083;52.098;7.582;2022-08-20T03:43:16;11.97;;;9.40;;
23804;SDS011;12083;52.098;7.582;2022-08-20T03:45:42;12.17;;;9.27;;
23804;SDS011;12083;52.098;7.582;2022-08-20T03:48:15;13.60;;;8.70;;
23804;SDS011;12083;52.098;7.582;2022-08-20T03:50:44;9.17;;;8.17;;
23804;SDS011;12083;52.098;7.582;2022-08-20T03:53:11;12.13;;;8.80;;
23804;SDS011;12083;52.098;7.582;2022-08-20T03:55:38;11.60;;;9.23;;
23804;SDS011;12083;52.098;7.582;2022-08-20T03:58:06;16.33;;;9.23;;
23804;SDS011;12083;52.098;7.582;2022-08-20T04:00:44;13.43;;;9.23;;
23804;SDS011;12083;52.098;7.582;2022-08-20T04:03:13;9.33;;;8.30;;
23804;SDS011;12083;52.098;7.582;2022-08-20T04:05:39;9.60;;;8.20;;
23804;SDS011;12083;52.098;7.582;2022-08-20T04:08:07;10.83;;;8.00;;
23804;SDS011;12083;52.098;7.582;2022-08-20T04:10:41;11.10;;;6.77;;
23804;SDS011;12083;52.098;7.582;2022-08-20T04:13:08;8.97;;;7.60;;
23804;SDS011;12083;52.098;7.582;2022-08-20T04:15:34;10.50;;;8.40;;
23804;SDS011;12083;52.098;7.582;2022-08-20T04:18:01;7.20;;;6.23;;
23804;SDS011;12083;52.098;7.582;2022-08-20T04:20:30;7.50;;;6.80;;
23804;SDS011;12083;52.098;7.582;2022-08-20T04:22:56;9.47;;;7.70;;
23804;SDS011;12083;52.098;7.582;2022-08-20T04:25:22;9.33;;;8.23;;
23804;SDS011;12083;52.098;7.582;2022-08-20T04:27:48;8.40;;;7.33;;
23804;SDS011;12083;52.098;7.582;2022-08-20T04:30:16;10.83;;;7.17;;
23804;SDS011;12083;52.098;7.582;2022-08-20T05:17:55;14.90;;;11.37;;
23804;SDS011;12083;52.098;7.582;2022-08-20T05:20:25;19.20;;;12.80;;
23804;SDS011;12083;52.098;7.582;2022-08-20T05:22:53;20.57;;;13.47;;
23804;SDS011;12083;52.098;7.582;2022-08-20T05:25:20;19.10;;;12.33;;
23804;SDS011;12083;52.098;7.582;2022-08-20T05:27:46;16.30;;;11.93;;
23804;SDS011;12083;52.098;7.582;2022-08-20T05:30:12;18.17;;;13.70;;
23804;SDS011;12083;52.098;7.582;2022-08-20T05:32:38;24.67;;;12.70;;
23804;SDS011;12083;52.098;7.582;2022-08-20T05:35:05;16.87;;;12.43;;
23804;SDS011;12083;52.098;7.582;2022-08-20T05:37:34;16.47;;;12.70;;
23804;SDS011;12083;52.098;7.582;2022-08-20T05:40:06;19.60;;;13.00;;
23804;SDS011;12083;52.098;7.582;2022-08-20T05:42:34;17.33;;;14.17;;
23804;SDS011;12083;52.098;7.582;2022-08-20T05:45:00;19.37;;;13.10;;
23804;SDS011;12083;52.098;7.582;2022-08-20T05:47:26;23.87;;;13.60;;
23804;SDS011;12083;52.098;7.582;2022-08-20T05:49:52;19.90;;;15.40;;
23804;SDS011;12083;52.098;7.582;2022-08-20T05:52:18;22.10;;;14.40;;
23804;SDS011;12083;52.098;7.582;2022-08-20T05:54:44;19.23;;;13.53;;
23804;SDS011;12083;52.098;7.582;2022-08-20T05:57:09;20.20;;;15.63;;
23804;SDS011;12083;52.098;7.582;2022-08-20T05:59:35;24.47;;;14.47;;
23804;SDS011;12083;52.098;7.582;2022-08-20T06:02:03;24.00;;;13.67;;
23804;SDS011;12083;52.098;7.582;2022-08-20T06:04:49;17.33;;;14.10;;
23804;SDS011;12083;52.098;7.582;2022-08-20T06:07:15;24.30;;;14.80;;
23804;SDS011;12083;52.098;7.582;2022-08-20T06:09:41;22.83;;;15.00;;
23804;SDS011;12083;52.098;7.582;2022-08-20T06:12:06;24.90;;;16.17;;
23804;SDS011;12083;52.098;7.582;2022-08-20T06:14:33;19.37;;;14.30;;
23804;SDS011;12083;52.098;7.582;2022-08-20T06:17:07;25.20;;;15.70;;
23804;SDS011;12083;52.098;7.582;2022-08-20T06:19:35;23.70;;;14.47;;
23804;SDS011;12083;52.098;7.582;2022-08-20T06:22:02;30.53;;;15.73;;
23804;SDS011;12083;52.098;7.582;2022-08-20T06:24:28;21.60;;;16.17;;
23804;SDS011;12083;52.098;7.582;2022-08-20T06:26:55;27.43;;;16.23;;
23804;SDS011;12083;52.098;7.582;2022-08-20T06:29:25;23.73;;;17.30;;
23804;SDS011;12083;52.098;7.582;2022-08-20T06:31:52;20.30;;;17.27;;
23804;SDS011;12083;52.098;7.582;2022-08-20T06:34:18;26.20;;;16.93;;
23804;SDS011;12083;52.098;7.582;2022-08-20T06:36:44;25.83;;;17.93;;
23804;SDS011;12083;52.098;7.582;2022-08-20T06:39:11;36.57;;;18.60;;
23804;SDS011;12083;52.098;7.582;2022-08-20T06:41:38;27.00;;;16.73;;
23804;SDS011;12083;52.098;7.582;2022-08-20T06:44:04;23.57;;;18.23;;
23804;SDS011;12083;52.098;7.582;2022-08-20T06:46:32;24.97;;;19.10;;
23804;SDS011;12083;52.098;7.582;2022-08-20T06:49:00;23.73;;;17.10;;
23804;SDS011;12083;52.098;7.582;2022-08-20T06:51:28;24.83;;;18.90;;
23804;SDS011;12083;52.098;7.582;2022-08-20T06:53:54;24.60;;;18.13;;
23804;SDS011;12083;52.098;7.582;2022-08-20T06:56:19;31.73;;;18.67;;
23804;SDS011;12083;52.098;7.582;2022-08-20T06:58:45;26.40;;;18.37;;
23804;SDS011;12083;52.098;7.582;2022-08-20T07:01:11;29.10;;;20.17;;
23804;SDS011;12083;52.098;7.582;2022-08-20T07:03:38;28.50;;;18.23;;
23804;SDS011;12083;52.098;7.582;2022-08-20T07:06:05;24.30;;;17.37;;
23804;SDS011;12083;52.098;7.582;2022-08-20T07:08:31;25.30;;;19.00;;
23804;SDS011;12083;52.098;7.582;2022-08-20T07:10:57;33.03;;;19.10;;
23804;SDS011;12083;52.098;7.582;2022-08-20T07:13:23;25.03;;;18.23;;
23804;SDS011;12083;52.098;7.582;2022-08-20T07:15:49;28.33;;;18.40;;
23804;SDS011;12083;52.098;7.582;2022-08-20T07:18:15;26.73;;;20.70;;
23804;SDS011;12083;52.098;7.582;2022-08-20T07:20:42;30.97;;;19.73;;
23804;SDS011;12083;52.098;7.582;2022-08-20T07:23:08;24.90;;;18.73;;
23804;SDS011;12083;52.098;7.582;2022-08-20T07:25:36;26.60;;;19.17;;
23804;SDS011;12083;52.098;7.582;2022-08-20T07:28:08;23.33;;;18.10;;
23804;SDS011;12083;52.098;7.582;2022-08-20T07:30:46;24.20;;;18.20;;
23804;SDS011;12083;52.098;7.582;2022-08-20T07:33:31;28.33;;;17.20;;
23804;SDS011;12083;52.098;7.582;2022-08-20T07:35:58;20.70;;;17.50;;
23804;SDS011;12083;52.098;7.582;2022-08-20T07:38:26;37.17;;;18.27;;
23804;SDS011;12083;52.098;7.582;2022-08-20T07:40:56;21.97;;;16.97;;
23804;SDS011;12083;52.098;7.582;2022-08-20T07:43:24;21.83;;;16.73;;
23804;SDS011;12083;52.098;7.582;2022-08-20T07:45:50;25.73;;;17.20;;
23804;SDS011;12083;52.098;7.582;2022-08-20T07:48:19;20.13;;;15.40;;
23804;SDS011;12083;52.098;7.582;2022-08-20T07:50:45;19.73;;;14.97;;
23804;SDS011;12083;52.098;7.582;2022-08-20T07:53:14;18.00;;;14.90;;
23804;SDS011;12083;52.098;7.582;2022-08-20T07:55:41;17.03;;;14.80;;
23804;SDS011;12083;52.098;7.582;2022-08-20T07:58:09;17.80;;;15.50;;
23804;SDS011;12083;52.098;7.582;2022-08-20T08:00:37;22.23;;;15.80;;
23804;SDS011;12083;52.098;7.582;2022-08-20T08:03:03;23.53;;;17.87;;
23804;SDS011;12083;52.098;7.582;2022-08-20T08:05:31;22.70;;;17.37;;
23804;SDS011;12083;52.098;7.582;2022-08-20T08:07:58;22.97;;;16.30;;
23804;SDS011;12083;52.098;7.582;2022-08-20T08:10:25;29.10;;;17.17;;
23804;SDS011;12083;52.098;7.582;2022-08-20T08:12:52;22.20;;;15.90;;
23804;SDS011;12083;52.098;7.582;2022-08-20T08:15:22;25.73;;;17.17;;
23804;SDS011;12083;52.098;7.582;2022-08-20T08:17:52;21.57;;;16.00;;
23804;SDS011;12083;52.098;7.582;2022-08-20T08:20:20;21.63;;;16.83;;
23804;SDS011;12083;52.098;7.582;2022-08-20T08:22:47;22.47;;;16.20;;
23804;SDS011;12083;52.098;7.582;2022-08-20T08:25:14;16.57;;;14.77;;
23804;SDS011;12083;52.098;7.582;2022-08-20T08:27:41;17.97;;;15.10;;
23804;SDS011;12083;52.098;7.582;2022-08-20T08:30:08;19.90;;;15.90;;
23804;SDS011;12083;52.098;7.582;2022-08-20T08:32:35;18.87;;;13.80;;
23804;SDS011;12083;52.098;7.582;2022-08-20T08:35:03;22.37;;;11.90;;
23804;SDS011;12083;52.098;7.582;2022-08-20T08:37:31;13.17;;;10.40;;
23804;SDS011;12083;52.098;7.582;2022-08-20T08:39:57;16.03;;;11.50;;
23804;SDS011;12083;52.098;7.582;2022-08-20T08:42:37;14.43;;;9.47;;
23804;SDS011;12083;52.098;7.582;2022-08-20T08:45:08;21.90;;;10.90;;
23804;SDS011;12083;52.098;7.582;2022-08-20T08:47:35;15.00;;;7.47;;
23804;SDS011;12083;52.098;7.582;2022-08-20T08:50:03;9.47;;;7.13;;
23804;SDS011;12083;52.098;7.582;2022-08-20T08:52:46;8.73;;;7.80;;
23804;SDS011;12083;52.098;7.582;2022-08-20T08:55:17;8.97;;;6.53;;
23804;SDS011;12083;52.098;7.582;2022-08-20T08:57:46;16.13;;;8.23;;
23804;SDS011;12083;52.098;7.582;2022-08-20T09:00:14;15.23;;;5.90;;
23804;SDS011;12083;52.098;7.582;2022-08-20T09:02:56;6.10;;;5.00;;
23804;SDS011;12083;52.098;7.582;2022-08-20T09:05:39;5.73;;;5.10;;
23804;SDS011;12083;52.098;7.582;2022-08-20T09:08:18;9.10;;;7.10;;
23804;SDS011;12083;52.098;7.582;2022-08-20T09:10:49;8.17;;;6.17;;
23804;SDS011;12083;52.098;7.582;2022-08-20T09:13:16;7.60;;;5.83;;
23804;SDS011;12083;52.098;7.582;2022-08-20T09:15:41;9.60;;;6.60;;
23804;SDS011;12083;52.098;7.582;2022-08-20T09:18:07;8.67;;;6.97;;
23804;SDS011;12083;52.098;7.582;2022-08-20T09:20:33;7.33;;;5.30;;
23804;SDS011;12083;52.098;7.582;2022-08-20T09:22:59;7.53;;;5.50;;
23804;SDS011;12083;52.098;7.582;2022-08-20T09:25:24;7.57;;;5.00;;
23804;SDS011;12083;52.098;7.582;2022-08-20T09:27:50;5.60;;;4.20;;
23804;SDS011;12083;52.098;7.582;2022-08-20T09:30:15;7.73;;;3.60;;
23804;SDS011;12083;52.098;7.582;2022-08-20T09:32:41;8.47;;;4.77;;
23804;SDS011;12083;52.098;7.582;2022-08-20T09:35:08;6.90;;;6.03;;
23804;SDS011;12083;52.098;7.582;2022-08-20T09:37:34;11.50;;;4.90;;
23804;SDS011;12083;52.098;7.582;2022-08-20T09:40:00;9.37;;;4.40;;
23804;SDS011;12083;52.098;7.582;2022-08-20T09:42:27;7.90;;;4.40;;
23804;SDS011;12083;52.098;7.582;2022-08-20T09:44:56;11.87;;;4.90;;
23804;SDS011;12083;52.098;7.582;2022-08-20T09:47:23;7.50;;;4.67;;
23804;SDS011;12083;52.098;7.582;2022-08-20T09:49:49;6.80;;;3.90;;
23804;SDS011;12083;52.098;7.582;2022-08-20T09:54:49;11.60;;;3.80;;
23804;SDS011;12083;52.098;7.582;2022-08-20T09:57:16;5.10;;;4.00;;
23804;SDS011;12083;52.098;7.582;2022-08-20T09:59:42;9.03;;;6.53;;
23804;SDS011;12083;52.098;7.582;2022-08-20T10:02:12;5.00;;;4.60;;
23804;SDS011;12083;52.098;7.582;2022-08-20T10:04:37;7.80;;;3.37;;
23804;SDS011;12083;52.098;7.582;2022-08-20T10:07:06;7.83;;;4.17;;
23804;SDS011;12083;52.098;7.582;2022-08-20T10:09:33;6.83;;;3.90;;
23804;SDS011;12083;52.098;7.582;2022-08-20T10:12:00;7.20;;;4.20;;
23804;SDS011;12083;52.098;7.582;2022-08-20T10:14:25;6.70;;;2.80;;
23804;SDS011;12083;52.098;7.582;2022-08-20T10:16:55;8.10;;;4.00;;
23804;SDS011;12083;52.098;7.582;2022-08-20T10:19:21;6.17;;;3.80;;
23804;SDS011;12083;52.098;7.582;2022-08-20T10:21:49;8.10;;;2.90;;
23804;SDS011;12083;52.098;7.582;2022-08-20T10:24:16;8.00;;;4.03;;
23804;SDS011;12083;52.098;7.582;2022-08-20T10:26:42;4.33;;;3.73;;
23804;SDS011;12083;52.098;7.582;2022-08-20T10:29:08;7.53;;;4.10;;
23804;SDS011;12083;52.098;7.582;2022-08-20T10:31:34;9.10;;;5.23;;
23804;SDS011;12083;52.098;7.582;2022-08-20T10:33:59;8.93;;;4.83;;
23804;SDS011;12083;52.098;7.582;2022-08-20T10:36:25;7.57;;;5.73;;
23804;SDS011;12083;52.098;7.582;2022-08-20T10:38:50;6.97;;;5.13;;
23804;SDS011;12083;52.098;7.582;2022-08-20T10:41:16;7.83;;;5.43;;
23804;SDS011;12083;52.098;7.582;2022-08-20T10:43:42;9.63;;;4.23;;
23804;SDS011;12083;52.098;7.582;2022-08-20T10:46:07;8.73;;;3.93;;
23804;SDS011;12083;52.098;7.582;2022-08-20T10:48:33;4.97;;;2.87;;
23804;SDS011;12083;52.098;7.582;2022-08-20T10:50:59;6.70;;;3.47;;
23804;SDS011;12083;52.098;7.582;2022-08-20T10:53:25;7.03;;;2.80;;
23804;SDS011;12083;52.098;7.582;2022-08-20T10:55:51;5.73;;;2.50;;
23804;SDS011;12083;52.098;7.582;2022-08-20T10:58:20;7.30;;;3.17;;
23804;SDS011;12083;52.098;7.582;2022-08-20T11:00:47;10.90;;;3.60;;
23804;SDS011;12083;52.098;7.582;2022-08-20T11:03:12;6.80;;;2.83;;
23804;SDS011;12083;52.098;7.582;2022-08-20T11:05:38;5.30;;;2.53;;
23804;SDS011;12083;52.098;7.582;2022-08-20T11:08:04;11.67;;;2.47;;
23804;SDS011;12083;52.098;7.582;2022-08-20T11:10:30;8.57;;;3.57;;
23804;SDS011;12083;52.098;7.582;2022-08-20T11:13:00;4.73;;;2.20;;
23804;SDS011;12083;52.098;7.582;2022-08-20T11:15:27;5.63;;;2.50;;
23804;SDS011;12083;52.098;7.582;2022-08-20T11:17:52;9.00;;;2.77;;
23804;SDS011;12083;52.098;7.582;2022-08-20T11:20:19;9.67;;;2.63;;
23804;SDS011;12083;52.098;7.582;2022-08-20T11:22:48;4.63;;;2.70;;
23804;SDS011;12083;52.098;7.582;2022-08-20T11:25:14;7.10;;;2.63;;
23804;SDS011;12083;52.098;7.582;2022-08-20T11:27:40;5.70;;;2.33;;
23804;SDS011;12083;52.098;7.582;2022-08-20T11:30:09;8.27;;;2.73;;
23804;SDS011;12083;52.098;7.582;2022-08-20T11:32:44;7.00;;;2.47;;
23804;SDS011;12083;52.098;7.582;2022-08-20T11:35:09;9.13;;;2.40;;
23804;SDS011;12083;52.098;7.582;2022-08-20T11:37:35;9.90;;;2.43;;
23804;SDS011;12083;52.098;7.582;2022-08-20T11:40:01;9.97;;;1.93;;
23804;SDS011;12083;52.098;7.582;2022-08-20T11:42:27;6.70;;;3.30;;
23804;SDS011;12083;52.098;7.582;2022-08-20T11:44:53;7.13;;;3.07;;
23804;SDS011;12083;52.098;7.582;2022-08-20T11:47:24;9.60;;;2.73;;
23804;SDS011;12083;52.098;7.582;2022-08-20T11:50:00;7.43;;;3.07;;
23804;SDS011;12083;52.098;7.582;2022-08-20T11:52:32;7.90;;;2.83;;
23804;SDS011;12083;52.098;7.582;2022-08-20T11:54:58;12.07;;;3.17;;
23804;SDS011;12083;52.098;7.582;2022-08-20T11:57:33;8.80;;;2.57;;
23804;SDS011;12083;52.098;7.582;2022-08-20T12:00:02;5.97;;;2.50;;
23804;SDS011;12083;52.098;7.582;2022-08-20T12:02:34;14.77;;;3.20;;
23804;SDS011;12083;52.098;7.582;2022-08-20T12:04:59;6.73;;;2.67;;
23804;SDS011;12083;52.098;7.582;2022-08-20T12:07:25;10.83;;;2.97;;
23804;SDS011;12083;52.098;7.582;2022-08-20T12:09:51;9.40;;;2.90;;
23804;SDS011;12083;52.098;7.582;2022-08-20T12:12:18;5.60;;;2.90;;
23804;SDS011;12083;52.098;7.582;2022-08-20T12:14:45;10.87;;;2.90;;
23804;SDS011;12083;52.098;7.582;2022-08-20T12:17:13;11.00;;;3.43;;
23804;SDS011;12083;52.098;7.582;2022-08-20T12:19:45;8.60;;;2.83;;
23804;SDS011;12083;52.098;7.582;2022-08-20T12:22:12;7.63;;;2.27;;
23804;SDS011;12083;52.098;7.582;2022-08-20T12:24:38;15.27;;;3.10;;
23804;SDS011;12083;52.098;7.582;2022-08-20T12:27:14;6.07;;;2.33;;
23804;SDS011;12083;52.098;7.582;2022-08-20T12:29:41;7.43;;;2.43;;
23804;SDS011;12083;52.098;7.582;2022-08-20T12:32:09;20.13;;;8.20;;
23804;SDS011;12083;52.098;7.582;2022-08-20T12:34:35;15.00;;;5.10;;
23804;SDS011;12083;52.098;7.582;2022-08-20T12:37:24;13.77;;;5.33;;
23804;SDS011;12083;52.098;7.582;2022-08-20T12:39:50;6.87;;;2.80;;
23804;SDS011;12083;52.098;7.582;2022-08-20T12:42:18;11.50;;;2.70;;
23804;SDS011;12083;52.098;7.582;2022-08-20T12:44:44;8.80;;;2.47;;
23804;SDS011;12083;52.098;7.582;2022-08-20T12:47:18;10.53;;;1.97;;
23804;SDS011;12083;52.098;7.582;2022-08-20T12:49:55;7.70;;;2.47;;
23804;SDS011;12083;52.098;7.582;2022-08-20T12:52:24;7.70;;;2.50;;
23804;SDS011;12083;52.098;7.582;2022-08-20T12:54:51;7.20;;;2.23;;
23804;SDS011;12083;52.098;7.582;2022-08-20T12:59:48;7.87;;;2.20;;
23804;SDS011;12083;52.098;7.582;2022-08-20T13:02:14;6.70;;;2.50;;
23804;SDS011;12083;52.098;7.582;2022-08-20T13:04:41;10.63;;;1.87;;
23804;SDS011;12083;52.098;7.582;2022-08-20T13:07:09;9.27;;;2.37;;
23804;SDS011;12083;52.098;7.582;2022-08-20T13:09:36;14.10;;;2.33;;
23804;SDS011;12083;52.098;7.582;2022-08-20T13:12:02;8.10;;;1.60;;
23804;SDS011;12083;52.098;7.582;2022-08-20T13:14:28;16.10;;;2.27;;
23804;SDS011;12083;52.098;7.582;2022-08-20T13:16:54;10.20;;;2.50;;
23804;SDS011;12083;52.098;7.582;2022-08-20T13:19:24;10.77;;;2.63;;
23804;SDS011;12083;52.098;7.582;2022-08-20T13:21:50;10.40;;;2.70;;
23804;SDS011;12083;52.098;7.582;2022-08-20T13:24:16;5.27;;;2.00;;
23804;SDS011;12083;52.098;7.582;2022-08-20T13:26:41;4.13;;;1.60;;
23804;SDS011;12083;52.098;7.582;2022-08-20T13:29:07;9.63;;;2.27;;
23804;SDS011;12083;52.098;7.582;2022-08-20T13:31:33;15.37;;;2.03;;
23804;SDS011;12083;52.098;7.582;2022-08-20T13:33:58;8.93;;;2.10;;
23804;SDS011;12083;52.098;7.582;2022-08-20T13:36:24;8.23;;;2.03;;
23804;SDS011;12083;52.098;7.582;2022-08-20T13:38:50;12.50;;;2.20;;
23804;SDS011;12083;52.098;7.582;2022-08-20T13:41:16;7.10;;;2.17;;
23804;SDS011;12083;52.098;7.582;2022-08-20T13:43:41;10.23;;;2.47;;
23804;SDS011;12083;52.098;7.582;2022-08-20T13:46:07;9.20;;;2.40;;
23804;SDS011;12083;52.098;7.582;2022-08-20T13:48:32;5.67;;;2.10;;
23804;SDS011;12083;52.098;7.582;2022-08-20T13:50:58;8.20;;;2.27;;
23804;SDS011;12083;52.098;7.582;2022-08-20T13:53:24;13.03;;;2.10;;
23804;SDS011;12083;52.098;7.582;2022-08-20T13:55:50;9.70;;;2.63;;
23804;SDS011;12083;52.098;7.582;2022-08-20T13:58:16;7.13;;;1.80;;
23804;SDS011;12083;52.098;7.582;2022-08-20T14:00:42;7.53;;;2.47;;
23804;SDS011;12083;52.098;7.582;2022-08-20T14:03:09;6.60;;;1.60;;
23804;SDS011;12083;52.098;7.582;2022-08-20T14:05:36;10.43;;;2.10;;
23804;SDS011;12083;52.098;7.582;2022-08-20T14:08:13;8.70;;;2.20;;
23804;SDS011;12083;52.098;7.582;2022-08-20T14:10:44;4.33;;;1.90;;
23804;SDS011;12083;52.098;7.582;2022-08-20T14:13:15;6.63;;;1.97;;
23804;SDS011;12083;52.098;7.582;2022-08-20T14:15:44;15.90;;;1.70;;
23804;SDS011;12083;52.098;7.582;2022-08-20T14:18:10;9.00;;;1.57;;
23804;SDS011;12083;52.098;7.582;2022-08-20T14:20:36;11.83;;;2.60;;
23804;SDS011;12083;52.098;7.582;2022-08-20T14:23:02;7.00;;;2.30;;
23804;SDS011;12083;52.098;7.582;2022-08-20T14:25:28;9.40;;;2.03;;
23804;SDS011;12083;52.098;7.582;2022-08-20T14:27:55;9.23;;;3.17;;
23804;SDS011;12083;52.098;7.582;2022-08-20T14:30:27;14.90;;;2.53;;
23804;SDS011;12083;52.098;7.582;2022-08-20T14:32:54;6.90;;;2.10;;
23804;SDS011;12083;52.098;7.582;2022-08-20T14:35:20;9.00;;;2.70;;
23804;SDS011;12083;52.098;7.582;2022-08-20T14:37:49;6.80;;;1.80;;
23804;SDS011;12083;52.098;7.582;2022-08-20T14:40:17;8.07;;;2.33;;
23804;SDS011;12083;52.098;7.582;2022-08-20T14:42:44;6.47;;;2.30;;
23804;SDS011;12083;52.098;7.582;2022-08-20T14:45:11;7.90;;;2.20;;
23804;SDS011;12083;52.098;7.582;2022-08-20T14:47:42;8.77;;;2.07;;
23804;SDS011;12083;52.098;7.582;2022-08-20T14:50:13;11.33;;;2.00;;
23804;SDS011;12083;52.098;7.582;2022-08-20T14:52:41;12.13;;;2.90;;
23804;SDS011;12083;52.098;7.582;2022-08-20T14:55:09;9.80;;;2.00;;
23804;SDS011;12083;52.098;7.582;2022-08-20T14:57:38;10.13;;;2.13;;
23804;SDS011;12083;52.098;7.582;2022-08-20T15:00:05;8.50;;;2.10;;
23804;SDS011;12083;52.098;7.582;2022-08-20T15:02:34;11.60;;;2.80;;
23804;SDS011;12083;52.098;7.582;2022-08-20T15:05:01;11.03;;;2.30;;
23804;SDS011;12083;52.098;7.582;2022-08-20T15:07:29;10.63;;;1.63;;
23804;SDS011;12083;52.098;7.582;2022-08-20T15:09:56;7.67;;;1.80;;
23804;SDS011;12083;52.098;7.582;2022-08-20T15:12:24;7.23;;;1.73;;
23804;SDS011;12083;52.098;7.582;2022-08-20T15:14:51;9.17;;;1.97;;
23804;SDS011;12083;52.098;7.582;2022-08-20T15:17:24;8.07;;;2.00;;
23804;SDS011;12083;52.098;7.582;2022-08-20T15:19:53;9.60;;;1.40;;
23804;SDS011;12083;52.098;7.582;2022-08-20T15:22:20;11.67;;;2.33;;
23804;SDS011;12083;52.098;7.582;2022-08-20T15:24:46;7.57;;;1.80;;
23804;SDS011;12083;52.098;7.582;2022-08-20T15:27:16;10.70;;;2.43;;
23804;SDS011;12083;52.098;7.582;2022-08-20T15:29:44;7.27;;;2.00;;
23804;SDS011;12083;52.098;7.582;2022-08-20T15:32:10;12.87;;;1.70;;
23804;SDS011;12083;52.098;7.582;2022-08-20T15:34:36;7.77;;;1.80;;